Time;durP1;ratioP1;P1;durP2;ratioP2;P2;SDS_P1;SDS_P2;PMS_P1;PMS_P2;Temp;Humidity;BMP_temperature;BMP_pressure;BME280_temperature;BME280_humidity;BME280_pressure;Samples;Min_cycle;Max_cycle;Signal;HPM_P1;HPM_P2
2022/06/19 00:01:45;;;;;;;0.20;0.20;;;19.30;99.90;;;;;;5114396;28;20234;-57
2022/06/19 00:04:12;;;;;;;0.20;0.20;;;19.00;99.90;;;;;;5114805;28;20173;-56
2022/06/19 00:06:39;;;;;;;0.75;0.20;;;18.80;99.90;;;;;;5114141;28;20262;-58
2022/06/19 00:09:06;;;;;;;0.43;0.43;;;18.70;99.90;;;;;;5114073;28;20311;-57
2022/06/19 00:11:33;;;;;;;0.40;0.40;;;18.70;99.90;;;;;;5115247;28;20620;-56
2022/06/19 00:14:00;;;;;;;0.20;0.20;;;18.80;99.90;;;;;;5115421;28;20178;-57
2022/06/19 00:16:26;;;;;;;0.50;0.40;;;18.80;99.90;;;;;;5115421;28;20173;-58
2022/06/19 00:18:52;;;;;;;0.57;0.30;;;18.70;99.90;;;;;;5115302;28;20169;-57
2022/06/19 00:21:18;;;;;;;0.20;0.20;;;18.80;99.90;;;;;;5115226;28;20271;-56
2022/06/19 00:23:45;;;;;;;1.40;0.93;;;18.70;99.90;;;;;;5113890;28;20173;-58
2022/06/19 00:26:12;;;;;;;0.30;0.30;;;18.80;99.90;;;;;;5113771;28;20695;-58
2022/06/19 00:28:40;;;;;;;0.20;0.10;;;18.80;99.90;;;;;;5115483;28;20173;-58
2022/06/19 00:31:07;;;;;;;0.75;0.28;;;18.70;99.90;;;;;;5113727;28;20201;-58
2022/06/19 00:33:33;;;;;;;0.60;0.45;;;18.50;99.90;;;;;;5115000;28;20178;-58
2022/06/19 00:35:58;;;;;;;0.10;0.10;;;18.30;99.90;;;;;;5114385;28;20218;-57
2022/06/19 00:38:24;;;;;;;0.20;0.20;;;18.40;99.90;;;;;;5114814;28;20213;-57
2022/06/19 00:40:50;;;;;;;0.90;0.32;;;18.40;99.90;;;;;;5114788;28;20177;-57
2022/06/19 00:43:15;;;;;;;0.20;0.20;;;18.30;99.90;;;;;;5114997;28;20166;-57
2022/06/19 00:45:50;;;;;;;0.10;0.10;;;18.10;99.90;;;;;;5114918;28;20183;-57
2022/06/19 00:48:17;;;;;;;0.28;0.28;;;18.00;99.90;;;;;;5114738;28;20168;-57
2022/06/19 00:50:46;;;;;;;0.63;0.22;;;17.90;99.90;;;;;;5114537;28;20197;-57
2022/06/19 00:53:40;;;;;;;0.20;0.20;;;17.80;99.90;;;;;;5114530;28;20174;-56
2022/06/19 00:56:11;;;;;;;0.20;0.20;;;17.70;99.90;;;;;;5114491;27;20264;-56
2022/06/19 00:58:40;;;;;;;0.22;0.22;;;17.80;99.90;;;;;;5114467;28;20217;-57
2022/06/19 01:01:11;;;;;;;0.30;0.30;;;17.60;99.80;;;;;;5114429;28;20744;-55
2022/06/19 01:03:55;;;;;;;0.28;0.28;;;17.60;99.80;;;;;;5114335;28;20165;-56
2022/06/19 01:06:23;;;;;;;1.02;0.10;;;17.50;99.50;;;;;;5114239;28;20189;-56
2022/06/19 01:08:49;;;;;;;0.10;0.10;;;17.50;99.30;;;;;;5113427;28;20619;-55
2022/06/19 01:11:17;;;;;;;0.60;0.28;;;17.50;98.70;;;;;;5114418;28;20559;-57
2022/06/19 01:13:42;;;;;;;0.10;0.10;;;17.50;98.70;;;;;;5113124;28;20309;-56
2022/06/19 01:16:09;;;;;;;0.50;0.13;;;17.40;99.10;;;;;;5114061;28;20252;-57
2022/06/19 01:18:37;;;;;;;0.52;0.40;;;17.40;99.40;;;;;;5114265;28;20173;-56
2022/06/19 01:21:19;;;;;;;0.75;0.30;;;17.30;99.90;;;;;;5114220;28;20173;-57
2022/06/19 01:24:11;;;;;;;0.43;0.43;;;17.40;99.90;;;;;;5114184;28;20169;-57
2022/06/19 01:26:42;;;;;;;0.70;0.15;;;17.20;99.70;;;;;;5112693;28;20173;-55
2022/06/19 01:29:08;;;;;;;0.10;0.10;;;17.00;99.30;;;;;;5114235;28;20169;-54
2022/06/19 01:31:39;;;;;;;0.25;0.15;;;17.10;99.50;;;;;;5114025;28;20684;-56
2022/06/19 01:34:28;;;;;;;0.15;0.10;;;17.00;99.00;;;;;;5114058;28;20169;-55
2022/06/19 01:37:10;;;;;;;0.13;0.10;;;17.00;98.90;;;;;;5113748;28;20176;-54
2022/06/19 01:39:44;;;;;;;1.45;0.68;;;17.10;98.70;;;;;;5114063;28;20173;-56
2022/06/19 01:42:11;;;;;;;0.40;0.20;;;17.10;98.70;;;;;;5112509;28;20184;-56
2022/06/19 01:44:38;;;;;;;0.40;0.20;;;17.10;98.30;;;;;;5113767;28;20178;-56
2022/06/19 01:47:04;;;;;;;0.43;0.30;;;17.00;98.50;;;;;;5113676;28;20177;-57
2022/06/19 01:49:34;;;;;;;0.45;0.25;;;17.00;98.60;;;;;;5113639;28;20174;-55
2022/06/19 01:52:02;;;;;;;0.10;0.10;;;17.00;98.80;;;;;;5113595;28;20307;-55
2022/06/19 01:54:34;;;;;;;0.20;0.10;;;17.00;98.70;;;;;;5112366;28;20178;-57
2022/06/19 01:57:00;;;;;;;0.45;0.45;;;17.10;98.70;;;;;;5113693;28;20170;-56
2022/06/19 01:59:31;;;;;;;0.22;0.22;;;17.10;98.80;;;;;;5113640;28;20173;-55
2022/06/19 02:01:59;;;;;;;0.10;0.10;;;17.00;99.30;;;;;;5113547;28;20169;-56
2022/06/19 02:04:25;;;;;;;1.27;0.20;;;17.00;99.50;;;;;;5113729;28;20495;-57
2022/06/19 02:06:56;;;;;;;0.13;0.13;;;17.10;99.40;;;;;;5113484;28;20226;-55
2022/06/19 02:09:23;;;;;;;0.10;0.10;;;17.10;99.20;;;;;;5113511;28;20672;-55
2022/06/19 02:11:50;;;;;;;0.38;0.20;;;17.00;99.10;;;;;;5112323;28;20254;-58
2022/06/19 02:14:17;;;;;;;0.10;0.10;;;17.10;99.30;;;;;;5112242;28;20181;-57
2022/06/19 02:16:46;;;;;;;1.70;0.20;;;17.10;99.50;;;;;;5112487;28;20177;-54
2022/06/19 02:19:12;;;;;;;0.10;0.10;;;17.20;99.00;;;;;;5113386;28;20170;-55
2022/06/19 02:21:40;;;;;;;0.32;0.13;;;17.10;99.10;;;;;;5112204;28;20177;-57
2022/06/19 02:24:09;;;;;;;0.28;0.10;;;17.10;99.00;;;;;;5113413;28;20180;-55
2022/06/19 02:26:37;;;;;;;0.40;0.40;;;17.00;99.00;;;;;;5112171;28;20214;-56
2022/06/19 02:29:06;;;;;;;0.15;0.10;;;16.90;98.80;;;;;;5113248;28;20195;-55
2022/06/19 02:31:34;;;;;;;0.08;0.08;;;16.90;98.60;;;;;;5112253;28;20209;-54
2022/06/19 02:34:04;;;;;;;0.50;0.38;;;16.70;98.50;;;;;;5113546;28;20618;-56
2022/06/19 02:36:40;;;;;;;0.45;0.20;;;16.60;98.50;;;;;;5113269;28;20205;-55
2022/06/19 02:39:44;;;;;;;0.10;0.10;;;16.70;98.50;;;;;;5113180;28;20206;-55
2022/06/19 02:42:22;;;;;;;0.10;0.10;;;16.90;98.20;;;;;;5094380;28;20181;-54
2022/06/19 02:44:51;;;;;;;0.10;0.10;;;16.90;98.10;;;;;;5113593;28;20170;-56
2022/06/19 02:47:17;;;;;;;0.30;0.30;;;16.90;97.60;;;;;;5113194;28;20708;-55
2022/06/19 02:49:42;;;;;;;0.10;0.05;;;16.90;97.50;;;;;;5113095;28;20181;-56
2022/06/19 02:52:11;;;;;;;0.52;0.10;;;16.90;97.50;;;;;;5111837;28;20670;-55
2022/06/19 02:54:37;;;;;;;0.10;0.10;;;16.70;97.70;;;;;;5113193;28;20222;-56
2022/06/19 02:57:05;;;;;;;0.60;0.13;;;16.70;97.60;;;;;;5113149;28;20165;-57
2022/06/19 02:59:31;;;;;;;0.47;0.30;;;16.70;97.30;;;;;;5116833;28;20173;-55
2022/06/19 03:01:57;;;;;;;1.35;0.28;;;16.60;96.70;;;;;;5116761;28;20180;-55
2022/06/19 03:04:26;;;;;;;0.10;0.10;;;16.70;96.80;;;;;;5116618;28;20180;-55
2022/06/19 03:06:54;;;;;;;0.28;0.22;;;16.80;95.30;;;;;;5115354;28;20189;-56
2022/06/19 03:09:21;;;;;;;0.47;0.30;;;16.80;95.00;;;;;;5116614;28;20530;-55
2022/06/19 03:11:47;;;;;;;0.03;0.00;;;16.80;94.40;;;;;;5116570;28;20193;-56
2022/06/19 03:14:13;;;;;;;0.20;0.10;;;16.80;93.70;;;;;;5115344;28;20180;-56
2022/06/19 03:16:39;;;;;;;0.30;0.10;;;16.80;93.50;;;;;;5115491;28;20264;-56
2022/06/19 03:19:04;;;;;;;0.52;0.47;;;16.80;93.60;;;;;;5116338;28;20231;-55
2022/06/19 03:21:30;;;;;;;0.10;0.10;;;16.70;93.10;;;;;;5115294;28;20239;-54
2022/06/19 03:23:56;;;;;;;0.15;0.10;;;16.70;93.00;;;;;;5116487;28;20250;-54
2022/06/19 03:26:21;;;;;;;0.30;0.10;;;16.70;93.00;;;;;;5116672;28;20204;-56
2022/06/19 03:28:47;;;;;;;0.57;0.10;;;16.80;92.60;;;;;;5116338;28;20181;-55
2022/06/19 03:31:16;;;;;;;0.25;0.25;;;16.80;92.30;;;;;;5115054;28;20249;-58
2022/06/19 03:33:42;;;;;;;0.05;0.05;;;16.70;91.90;;;;;;5115100;28;20177;-55
2022/06/19 03:36:08;;;;;;;0.75;0.20;;;16.60;92.20;;;;;;5114968;28;20530;-55
2022/06/19 03:38:33;;;;;;;0.22;0.20;;;16.60;91.90;;;;;;5116141;28;20173;-55
2022/06/19 03:40:59;;;;;;;0.10;0.10;;;16.60;91.30;;;;;;5116126;28;20264;-56
2022/06/19 03:43:24;;;;;;;0.10;0.10;;;16.50;91.40;;;;;;5116048;28;20641;-54
2022/06/19 03:45:50;;;;;;;0.15;0.10;;;16.40;91.60;;;;;;5114906;28;20654;-55
2022/06/19 03:48:16;;;;;;;0.80;0.40;;;16.40;91.80;;;;;;5114523;28;20178;-55
2022/06/19 03:50:42;;;;;;;0.20;0.20;;;16.50;91.90;;;;;;5115949;28;20288;-56
2022/06/19 03:53:08;;;;;;;0.17;0.10;;;16.50;92.10;;;;;;5115987;28;20264;-56
2022/06/19 03:55:34;;;;;;;0.65;0.38;;;16.60;92.20;;;;;;5114529;28;20181;-55
2022/06/19 03:58:00;;;;;;;0.77;0.28;;;16.50;92.10;;;;;;5116009;28;20165;-55
2022/06/19 04:00:26;;;;;;;0.25;0.10;;;16.40;92.00;;;;;;5114452;28;20227;-54
2022/06/19 04:02:52;;;;;;;0.10;0.10;;;16.50;91.80;;;;;;5115828;28;20177;-55
2022/06/19 04:05:18;;;;;;;0.20;0.08;;;16.60;91.80;;;;;;5114607;28;20187;-55
2022/06/19 04:07:48;;;;;;;0.43;0.35;;;16.60;91.80;;;;;;5114364;28;20726;-54
2022/06/19 04:10:17;;;;;;;0.52;0.20;;;16.60;91.60;;;;;;5113210;28;20666;-55
2022/06/19 04:12:43;;;;;;;0.10;0.10;;;16.60;91.40;;;;;;5115775;28;20209;-56
2022/06/19 04:15:11;;;;;;;0.40;0.32;;;16.60;91.40;;;;;;5114105;28;20169;-55
2022/06/19 04:17:37;;;;;;;0.20;0.20;;;16.60;91.70;;;;;;5115519;28;20241;-54
2022/06/19 04:20:04;;;;;;;0.70;0.20;;;16.70;91.50;;;;;;5114083;28;20173;-56
2022/06/19 04:22:30;;;;;;;0.10;0.10;;;16.80;91.90;;;;;;5115397;28;20314;-55
2022/06/19 04:24:56;;;;;;;0.10;0.10;;;16.90;91.40;;;;;;5113926;28;20228;-54
2022/06/19 04:27:23;;;;;;;0.60;0.20;;;17.00;91.70;;;;;;5113970;28;20169;-54
2022/06/19 04:29:49;;;;;;;0.10;0.10;;;17.00;91.20;;;;;;5113735;28;20172;-57
2022/06/19 04:32:15;;;;;;;0.10;0.10;;;16.90;91.60;;;;;;5113886;28;20209;-55
2022/06/19 04:34:41;;;;;;;0.00;0.00;;;16.90;91.60;;;;;;5114251;28;20642;-55
2022/06/19 04:37:06;;;;;;;0.03;0.03;;;16.90;91.80;;;;;;5115109;28;20183;-55
2022/06/19 04:39:33;;;;;;;0.20;0.10;;;16.90;91.80;;;;;;5096679;28;20181;-55
2022/06/19 04:41:59;;;;;;;0.25;0.10;;;16.90;92.50;;;;;;5114897;28;20184;-55
2022/06/19 04:44:25;;;;;;;0.25;0.10;;;17.10;92.50;;;;;;5114788;28;20197;-55
2022/06/19 04:46:51;;;;;;;0.52;0.20;;;17.00;92.60;;;;;;5113592;28;20546;-55
2022/06/19 04:49:17;;;;;;;0.10;0.00;;;17.00;92.60;;;;;;5114848;28;20181;-55
2022/06/19 04:51:43;;;;;;;0.00;0.00;;;17.10;92.30;;;;;;5113579;28;20625;-54
2022/06/19 04:54:09;;;;;;;0.03;0.03;;;17.20;92.70;;;;;;5113358;28;20216;-55
2022/06/19 04:56:35;;;;;;;0.00;0.00;;;17.10;93.50;;;;;;5114619;28;20638;-55
2022/06/19 04:59:01;;;;;;;0.15;0.15;;;17.00;95.10;;;;;;5114423;28;20169;-56
2022/06/19 05:01:31;;;;;;;0.57;0.20;;;16.90;95.50;;;;;;5114428;28;20314;-55
2022/06/19 05:03:59;;;;;;;0.10;0.10;;;17.00;95.60;;;;;;5114815;28;20177;-55
2022/06/19 05:06:26;;;;;;;0.15;0.10;;;17.00;96.40;;;;;;5113130;28;20277;-55
2022/06/19 05:08:52;;;;;;;0.10;0.10;;;17.00;94.90;;;;;;5113407;28;20181;-55
2022/06/19 05:11:19;;;;;;;0.20;0.10;;;17.00;95.80;;;;;;5114208;28;20226;-56
2022/06/19 05:13:45;;;;;;;0.30;0.20;;;17.10;94.50;;;;;;5112895;28;20181;-55
2022/06/19 05:16:13;;;;;;;0.10;0.10;;;17.00;94.70;;;;;;5114419;28;20571;-55
2022/06/19 05:18:40;;;;;;;0.10;0.05;;;16.80;95.10;;;;;;5114377;28;20276;-56
2022/06/19 05:21:06;;;;;;;0.20;0.10;;;16.70;96.30;;;;;;5112692;28;20177;-54
2022/06/19 05:23:34;;;;;;;0.30;0.10;;;16.80;97.00;;;;;;5095847;28;20177;-55
2022/06/19 05:26:25;;;;;;;0.00;0.00;;;16.90;98.10;;;;;;5112963;28;20184;-54
2022/06/19 05:28:51;;;;;;;0.10;0.10;;;17.10;97.90;;;;;;5114140;28;20618;-55
2022/06/19 05:31:18;;;;;;;0.20;0.20;;;17.20;97.50;;;;;;5114002;28;20242;-54
2022/06/19 05:33:44;;;;;;;0.10;0.10;;;17.30;97.00;;;;;;5113931;28;20524;-54
2022/06/19 05:36:10;;;;;;;0.85;0.30;;;17.40;96.40;;;;;;5112767;28;20584;-55
2022/06/19 05:38:36;;;;;;;0.55;0.35;;;17.50;96.70;;;;;;5113823;28;20169;-56
2022/06/19 05:41:02;;;;;;;0.20;0.20;;;17.50;96.40;;;;;;5113779;28;20173;-57
2022/06/19 05:43:30;;;;;;;1.38;0.22;;;17.50;97.20;;;;;;5112172;28;20181;-56
2022/06/19 05:46:01;;;;;;;0.25;0.10;;;17.50;97.30;;;;;;5113605;28;20169;-55
2022/06/19 05:48:28;;;;;;;0.95;0.50;;;17.40;97.80;;;;;;5112534;28;20255;-55
2022/06/19 05:51:01;;;;;;;0.08;0.08;;;17.40;99.20;;;;;;5113435;28;20674;-56
2022/06/19 05:53:32;;;;;;;0.70;0.10;;;17.30;99.90;;;;;;5112600;28;20180;-56
2022/06/19 05:55:58;;;;;;;0.05;0.05;;;17.20;99.90;;;;;;5113592;28;20169;-57
2022/06/19 05:58:25;;;;;;;0.10;0.10;;;16.90;99.90;;;;;;5113588;28;20208;-55
2022/06/19 06:00:51;;;;;;;0.52;0.20;;;16.50;99.90;;;;;;5113503;28;20169;-54
2022/06/19 06:03:18;;;;;;;0.20;0.20;;;16.40;99.90;;;;;;5113779;28;20173;-56
2022/06/19 06:05:45;;;;;;;0.90;0.73;;;16.10;99.90;;;;;;5113473;28;20191;-56
2022/06/19 06:08:13;;;;;;;0.00;0.00;;;16.10;99.90;;;;;;5112390;28;20189;-56
2022/06/19 06:10:40;;;;;;;0.15;0.15;;;16.00;99.90;;;;;;5110355;28;20192;-57
2022/06/19 06:13:06;;;;;;;0.00;0.00;;;16.00;99.90;;;;;;5112691;28;20545;-56
2022/06/19 06:15:32;;;;;;;0.10;0.10;;;16.00;99.90;;;;;;5113518;28;20170;-55
2022/06/19 06:17:59;;;;;;;0.40;0.30;;;15.90;99.90;;;;;;5113197;28;20173;-57
2022/06/19 06:20:26;;;;;;;0.30;0.30;;;15.80;99.90;;;;;;5113489;28;20181;-55
2022/06/19 06:22:52;;;;;;;0.40;0.30;;;15.60;99.90;;;;;;5112216;28;20223;-57
2022/06/19 06:25:18;;;;;;;0.73;0.43;;;15.30;99.90;;;;;;5113237;28;20561;-56
2022/06/19 06:27:44;;;;;;;0.13;0.13;;;15.30;99.90;;;;;;5113152;28;20593;-56
2022/06/19 06:30:10;;;;;;;0.00;0.00;;;15.20;99.90;;;;;;5113506;28;20204;-56
2022/06/19 06:32:36;;;;;;;0.17;0.17;;;15.10;99.90;;;;;;5114059;28;20234;-55
2022/06/19 06:35:02;;;;;;;0.20;0.20;;;14.70;99.90;;;;;;5116008;28;20177;-56
2022/06/19 06:37:28;;;;;;;0.35;0.30;;;14.70;99.90;;;;;;5115765;28;20177;-55
2022/06/19 06:39:54;;;;;;;0.20;0.20;;;14.70;99.90;;;;;;5116005;28;20189;-57
2022/06/19 06:42:20;;;;;;;2.55;0.30;;;14.60;99.90;;;;;;5117121;28;20173;-56
2022/06/19 06:44:45;;;;;;;0.65;0.30;;;14.50;99.90;;;;;;5116995;28;20176;-56
2022/06/19 06:47:11;;;;;;;0.50;0.32;;;14.50;99.90;;;;;;5115883;28;20223;-56
2022/06/19 06:49:36;;;;;;;0.63;0.22;;;14.50;99.90;;;;;;5116982;28;20618;-55
2022/06/19 06:52:07;;;;;;;0.10;0.10;;;14.60;99.90;;;;;;5115817;28;20250;-56
2022/06/19 06:54:38;;;;;;;1.08;0.40;;;14.50;99.90;;;;;;5116819;28;20234;-55
2022/06/19 06:57:05;;;;;;;0.40;0.20;;;14.40;99.90;;;;;;5116591;28;20170;-57
2022/06/19 06:59:31;;;;;;;0.20;0.20;;;14.40;99.90;;;;;;5116833;28;20187;-56
2022/06/19 07:01:57;;;;;;;0.20;0.20;;;14.50;99.90;;;;;;5122303;27;20173;-57
2022/06/19 07:04:23;;;;;;;0.20;0.20;;;14.60;99.90;;;;;;5122069;27;20181;-56
2022/06/19 07:06:49;;;;;;;1.35;0.40;;;14.80;99.90;;;;;;5116588;28;20193;-55
2022/06/19 07:09:14;;;;;;;0.40;0.30;;;14.90;99.90;;;;;;5116609;28;20265;-55
2022/06/19 07:11:42;;;;;;;0.32;0.20;;;15.10;99.90;;;;;;5116048;28;20262;-56
2022/06/19 07:14:09;;;;;;;0.40;0.30;;;15.30;99.90;;;;;;5116379;28;20306;-57
2022/06/19 07:16:36;;;;;;;0.30;0.30;;;15.40;99.90;;;;;;5115003;28;20181;-55
2022/06/19 07:19:02;;;;;;;0.47;0.47;;;15.30;99.90;;;;;;5115408;28;20173;-57
2022/06/19 07:21:28;;;;;;;0.65;0.30;;;15.40;99.90;;;;;;5098267;28;20174;-57
2022/06/19 07:23:54;;;;;;;1.92;0.55;;;15.30;99.90;;;;;;5115099;28;20657;-55
2022/06/19 07:26:21;;;;;;;1.35;0.30;;;15.40;99.90;;;;;;5115092;28;20180;-56
2022/06/19 07:28:48;;;;;;;0.60;0.40;;;15.30;99.90;;;;;;5116236;28;20173;-58
2022/06/19 07:31:14;;;;;;;0.28;0.20;;;15.30;99.90;;;;;;5116326;28;20197;-58
2022/06/19 07:33:40;;;;;;;0.20;0.20;;;15.20;99.90;;;;;;5136718;27;20179;-57
2022/06/19 07:36:19;;;;;;;0.45;0.45;;;15.10;99.90;;;;;;5135627;27;20184;-56
2022/06/19 07:38:45;;;;;;;0.45;0.30;;;15.10;99.90;;;;;;5136836;27;20173;-55
2022/06/19 07:41:11;;;;;;;0.50;0.40;;;15.10;99.90;;;;;;5125864;27;20638;-57
2022/06/19 07:43:37;;;;;;;0.50;0.45;;;14.90;99.90;;;;;;5115710;28;20177;-57
2022/06/19 07:46:03;;;;;;;0.35;0.35;;;14.80;99.90;;;;;;5114767;28;20170;-55
2022/06/19 07:51:13;;;;;;;0.40;0.40;;;14.90;99.90;;;;;;5116234;28;20230;-57
2022/06/19 07:53:38;;;;;;;2.38;0.93;;;14.90;99.90;;;;;;5115761;28;20169;-57
2022/06/19 07:56:04;;;;;;;1.70;0.40;;;14.90;99.90;;;;;;5114584;28;20188;-55
2022/06/19 07:58:30;;;;;;;1.05;0.95;;;14.90;99.90;;;;;;5115583;28;20234;-55
2022/06/19 08:00:56;;;;;;;0.47;0.40;;;15.00;99.90;;;;;;5115848;28;20736;-56
2022/06/19 08:03:21;;;;;;;0.52;0.40;;;15.00;99.90;;;;;;5134145;27;20188;-56
2022/06/19 08:05:47;;;;;;;0.45;0.40;;;15.10;99.90;;;;;;5136230;27;20177;-56
2022/06/19 08:08:27;;;;;;;1.38;0.52;;;15.20;99.90;;;;;;5136066;27;20279;-56
2022/06/19 08:10:54;;;;;;;0.75;0.50;;;15.30;99.90;;;;;;5129415;27;20196;-56
2022/06/19 08:13:26;;;;;;;0.30;0.30;;;15.20;99.90;;;;;;5115674;28;20226;-55
2022/06/19 08:15:55;;;;;;;0.30;0.30;;;15.40;99.90;;;;;;5115784;28;20170;-56
2022/06/19 08:18:21;;;;;;;1.60;0.77;;;15.60;99.90;;;;;;5115543;28;20173;-55
2022/06/19 08:20:48;;;;;;;2.97;0.40;;;15.60;99.90;;;;;;5114384;28;20181;-54
2022/06/19 08:23:14;;;;;;;0.60;0.32;;;15.70;99.90;;;;;;5114982;28;20185;-55
2022/06/19 08:25:41;;;;;;;0.47;0.47;;;15.80;99.90;;;;;;5114242;28;20511;-55
2022/06/19 08:28:07;;;;;;;2.40;0.80;;;15.70;99.90;;;;;;5115240;28;20172;-55
2022/06/19 08:30:40;;;;;;;0.95;0.52;;;15.80;99.90;;;;;;5113936;28;20182;-55
2022/06/19 08:33:07;;;;;;;0.52;0.50;;;16.10;99.90;;;;;;5131228;27;20225;-56
2022/06/19 08:35:39;;;;;;;2.53;0.70;;;16.00;99.90;;;;;;5135386;27;20180;-53
2022/06/19 08:38:09;;;;;;;3.25;0.50;;;16.30;99.90;;;;;;5134534;27;20549;-55
2022/06/19 08:41:02;;;;;;;1.75;0.80;;;16.50;99.90;;;;;;5135435;27;20168;-56
2022/06/19 08:43:45;;;;;;;0.80;0.80;;;16.60;99.90;;;;;;5135340;27;20172;-55
2022/06/19 08:46:11;;;;;;;0.55;0.50;;;16.40;99.90;;;;;;5135218;27;20229;-54
2022/06/19 08:48:43;;;;;;;3.58;0.60;;;16.40;99.90;;;;;;5135506;27;20165;-55
2022/06/19 08:51:37;;;;;;;1.60;0.60;;;16.50;99.90;;;;;;5135360;27;20660;-56
2022/06/19 08:54:35;;;;;;;2.17;0.80;;;16.60;99.90;;;;;;5135603;27;20262;-54
2022/06/19 08:57:25;;;;;;;0.93;0.52;;;16.60;99.90;;;;;;5065273;28;20197;-57
2022/06/19 09:00:06;;;;;;;1.92;0.68;;;16.50;99.90;;;;;;5092636;28;20169;-56
2022/06/19 09:02:55;;;;;;;1.40;0.70;;;16.30;99.90;;;;;;5114668;27;20255;-55
2022/06/19 09:05:48;;;;;;;1.20;0.50;;;16.30;99.90;;;;;;5132785;27;20255;-54
2022/06/19 09:08:32;;;;;;;0.52;0.50;;;16.30;99.90;;;;;;5132925;27;20266;-56
2022/06/19 09:11:27;;;;;;;0.50;0.50;;;16.60;99.90;;;;;;5132653;27;20231;-56
2022/06/19 09:14:01;;;;;;;0.50;0.50;;;16.60;99.90;;;;;;5118985;27;20267;-56
2022/06/19 09:16:36;;;;;;;1.45;0.88;;;16.70;99.90;;;;;;5134730;27;20212;-54
2022/06/19 09:19:16;;;;;;;2.70;0.80;;;16.70;99.90;;;;;;5134699;27;20536;-53
2022/06/19 09:21:53;;;;;;;0.93;0.80;;;17.10;99.90;;;;;;5133836;27;20180;-54
2022/06/19 09:25:00;;;;;;;1.90;0.63;;;17.20;99.90;;;;;;5134771;27;20179;-56
2022/06/19 09:27:37;;;;;;;3.17;0.93;;;17.30;99.90;;;;;;5110279;27;20271;-58
2022/06/19 09:30:14;;;;;;;1.08;0.70;;;17.40;99.90;;;;;;5134863;27;20160;-60
2022/06/19 09:32:43;;;;;;;0.95;0.38;;;17.50;99.90;;;;;;5133217;27;20208;-58
2022/06/19 09:35:18;;;;;;;1.27;0.60;;;17.70;99.90;;;;;;5134438;27;20169;-56
2022/06/19 09:38:07;;;;;;;1.38;0.50;;;17.60;99.90;;;;;;5134828;27;20213;-56
2022/06/19 09:40:41;;;;;;;1.63;0.70;;;17.60;99.90;;;;;;5134665;27;20196;-56
2022/06/19 09:43:25;;;;;;;1.02;0.50;;;17.50;99.90;;;;;;5134651;27;20202;-57
2022/06/19 09:46:18;;;;;;;0.90;0.40;;;17.60;99.90;;;;;;5134576;27;20168;-57
2022/06/19 09:49:02;;;;;;;1.33;0.60;;;17.60;99.90;;;;;;5127344;27;20191;-56
2022/06/19 09:51:56;;;;;;;0.80;0.52;;;17.60;99.90;;;;;;5132861;27;20245;-57
2022/06/19 09:54:38;;;;;;;1.73;0.50;;;17.70;99.90;;;;;;5134181;27;20188;-56
2022/06/19 09:57:22;;;;;;;2.05;0.50;;;17.90;99.90;;;;;;5134431;28;20164;-57
2022/06/19 09:59:56;;;;;;;1.85;0.63;;;18.00;99.90;;;;;;5134434;28;20314;-57
2022/06/19 10:02:33;;;;;;;3.60;0.98;;;18.10;99.90;;;;;;5134412;28;20527;-56
2022/06/19 10:05:04;;;;;;;2.78;0.73;;;18.10;99.90;;;;;;5134287;28;20178;-56
2022/06/19 10:07:45;;;;;;;1.35;0.73;;;18.00;99.90;;;;;;5135078;27;20265;-56
2022/06/19 10:10:32;;;;;;;0.60;0.47;;;17.90;99.90;;;;;;5138534;27;20168;-57
2022/06/19 10:12:59;;;;;;;2.42;0.85;;;18.00;99.90;;;;;;5138447;27;20257;-57
2022/06/19 10:15:31;;;;;;;1.20;1.10;;;17.90;99.90;;;;;;5136922;27;20176;-57
2022/06/19 10:18:03;;;;;;;1.40;0.73;;;18.00;99.90;;;;;;5138025;27;20526;-56
2022/06/19 10:20:58;;;;;;;0.70;0.70;;;18.00;99.90;;;;;;5138333;27;20157;-57
2022/06/19 10:23:29;;;;;;;3.80;0.80;;;18.30;99.90;;;;;;5124571;27;20248;-57
2022/06/19 10:26:11;;;;;;;0.90;0.70;;;18.30;99.90;;;;;;5138007;27;20175;-57
2022/06/19 10:28:39;;;;;;;1.05;0.60;;;18.50;99.90;;;;;;5138181;27;20176;-58
2022/06/19 10:31:14;;;;;;;1.27;0.70;;;18.90;99.90;;;;;;5137982;27;20224;-57
2022/06/19 10:34:20;;;;;;;0.60;0.60;;;18.90;99.90;;;;;;5138035;27;20250;-57
2022/06/19 10:37:06;;;;;;;0.88;0.70;;;19.20;99.90;;;;;;5138234;27;20183;-56
2022/06/19 10:40:02;;;;;;;3.17;0.80;;;19.40;99.90;;;;;;5136897;27;20161;-56
2022/06/19 10:42:42;;;;;;;0.57;0.57;;;19.40;99.90;;;;;;5137469;27;20215;-57
2022/06/19 10:45:21;;;;;;;0.65;0.60;;;19.30;99.90;;;;;;5137064;27;20168;-55
2022/06/19 10:48:07;;;;;;;0.90;0.60;;;18.80;99.90;;;;;;5135388;27;20172;-57
2022/06/19 10:50:43;;;;;;;1.33;0.60;;;18.70;99.90;;;;;;5136809;27;20204;-57
2022/06/19 10:53:14;;;;;;;0.40;0.40;;;18.90;99.90;;;;;;5135488;27;20176;-57
2022/06/19 10:55:54;;;;;;;1.13;0.63;;;18.60;99.90;;;;;;5136752;27;20168;-57
2022/06/19 10:58:22;;;;;;;0.60;0.57;;;18.60;99.90;;;;;;5135953;27;20161;-56
2022/06/19 11:00:54;;;;;;;1.13;0.57;;;18.70;99.90;;;;;;5135852;27;20237;-57
2022/06/19 11:06:19;;;;;;;2.05;0.50;;;18.40;99.90;;;;;;5136587;27;20260;-58
2022/06/19 11:08:53;;;;;;;0.77;0.75;;;18.30;99.90;;;;;;5136462;27;20188;-57
2022/06/19 11:11:20;;;;;;;0.70;0.63;;;18.50;99.90;;;;;;5135049;27;20569;-57
2022/06/19 11:14:03;;;;;;;0.70;0.70;;;18.60;99.90;;;;;;5136149;27;20181;-58
2022/06/19 11:16:31;;;;;;;0.95;0.80;;;18.60;99.90;;;;;;5136369;27;20172;-57
2022/06/19 11:18:57;;;;;;;1.15;0.70;;;18.70;99.90;;;;;;5134332;27;20177;-57
2022/06/19 11:21:31;;;;;;;1.00;0.90;;;18.60;99.90;;;;;;5136265;27;20191;-57
2022/06/19 11:24:00;;;;;;;0.60;0.60;;;18.60;99.90;;;;;;5136113;27;20622;-58
2022/06/19 11:26:39;;;;;;;0.70;0.70;;;18.40;99.90;;;;;;5135958;27;20598;-58
2022/06/19 11:29:13;;;;;;;0.88;0.88;;;18.30;99.90;;;;;;5136025;27;20267;-57
2022/06/19 11:32:01;;;;;;;2.08;0.70;;;18.20;99.90;;;;;;5135974;27;20250;-58
2022/06/19 11:34:46;;;;;;;0.82;0.70;;;18.10;99.90;;;;;;5135328;27;20200;-58
2022/06/19 11:37:23;;;;;;;1.52;0.63;;;18.20;99.90;;;;;;5134844;27;20498;-58
2022/06/19 11:40:14;;;;;;;0.80;0.80;;;18.30;99.90;;;;;;5136086;27;20315;-57
2022/06/19 11:42:50;;;;;;;1.83;0.73;;;18.10;99.90;;;;;;5136014;27;20192;-57
2022/06/19 11:45:16;;;;;;;0.93;0.70;;;18.30;99.90;;;;;;5135508;27;20164;-58
2022/06/19 11:47:54;;;;;;;1.58;0.90;;;18.10;99.90;;;;;;5135580;27;20172;-58
2022/06/19 11:50:32;;;;;;;1.50;1.10;;;18.10;99.90;;;;;;5135589;27;20169;-58
2022/06/19 11:53:03;;;;;;;1.60;0.90;;;18.10;99.90;;;;;;5135609;27;20212;-58
2022/06/19 11:55:35;;;;;;;1.15;0.90;;;17.90;99.90;;;;;;5134128;27;20644;-58
2022/06/19 11:58:39;;;;;;;1.40;1.00;;;17.90;99.90;;;;;;5135625;27;20174;-58
2022/06/19 12:01:17;;;;;;;1.77;1.20;;;18.10;99.90;;;;;;5135358;27;20184;-57
2022/06/19 12:03:56;;;;;;;1.08;0.85;;;18.50;99.90;;;;;;5135321;27;20243;-58
2022/06/19 12:06:37;;;;;;;1.27;0.75;;;18.40;99.90;;;;;;5135340;27;20185;-58
2022/06/19 12:09:06;;;;;;;1.55;1.10;;;18.10;99.90;;;;;;5135442;27;20558;-58
2022/06/19 12:11:48;;;;;;;0.85;0.70;;;17.90;99.90;;;;;;5133830;27;20200;-58
2022/06/19 12:14:30;;;;;;;1.95;1.52;;;17.90;99.90;;;;;;5135155;27;20181;-57
2022/06/19 12:17:18;;;;;;;1.25;0.95;;;17.60;99.90;;;;;;5135324;27;20192;-57
2022/06/19 12:20:07;;;;;;;1.38;0.98;;;17.50;99.90;;;;;;5135042;27;20173;-57
2022/06/19 12:22:38;;;;;;;2.55;0.90;;;17.20;99.90;;;;;;5134949;27;20257;-57
2022/06/19 12:25:24;;;;;;;0.70;0.70;;;17.30;99.90;;;;;;5133810;27;20204;-57
2022/06/19 12:28:04;;;;;;;1.63;1.23;;;17.40;99.90;;;;;;5135038;27;20168;-57
2022/06/19 12:30:39;;;;;;;1.50;1.40;;;17.40;99.90;;;;;;5134075;27;20255;-57
2022/06/19 12:33:16;;;;;;;2.95;1.85;;;17.20;99.90;;;;;;5133555;27;20179;-57
2022/06/19 12:35:47;;;;;;;1.83;1.60;;;16.90;99.90;;;;;;5135009;27;20172;-57
2022/06/19 12:38:15;;;;;;;1.60;1.40;;;16.70;99.90;;;;;;5134798;27;20531;-57
2022/06/19 12:41:26;;;;;;;2.10;1.90;;;16.50;99.90;;;;;;5134558;27;20268;-57
2022/06/19 12:44:08;;;;;;;3.03;2.35;;;16.50;99.90;;;;;;5134787;27;20560;-57
2022/06/19 12:46:54;;;;;;;3.28;2.97;;;16.40;99.90;;;;;;5134640;27;20168;-57
2022/06/19 12:49:41;;;;;;;3.50;2.83;;;16.50;99.90;;;;;;5134480;27;20256;-57
2022/06/19 12:52:15;;;;;;;4.45;3.72;;;16.40;99.90;;;;;;5134213;27;20232;-57
2022/06/19 12:54:47;;;;;;;5.65;3.47;;;16.40;99.90;;;;;;5134538;27;20185;-57
2022/06/19 12:57:34;;;;;;;5.03;3.63;;;16.30;99.90;;;;;;5134275;27;20181;-57
2022/06/19 13:00:25;;;;;;;4.10;3.60;;;16.40;99.90;;;;;;5134260;27;20195;-57
2022/06/19 13:03:18;;;;;;;4.28;3.33;;;16.30;99.90;;;;;;5134335;27;20275;-58
2022/06/19 13:05:46;;;;;;;4.25;3.50;;;16.10;99.90;;;;;;5134346;27;20506;-58
2022/06/19 13:08:34;;;;;;;4.85;4.13;;;16.00;99.90;;;;;;5133994;27;20196;-58
2022/06/19 13:11:26;;;;;;;4.38;3.40;;;16.00;99.90;;;;;;5134192;27;20203;-58
2022/06/19 13:14:04;;;;;;;4.47;3.50;;;16.10;99.90;;;;;;5133992;27;20195;-58
2022/06/19 13:16:48;;;;;;;5.90;4.13;;;16.00;99.90;;;;;;5134128;27;20244;-58
2022/06/19 13:19:26;;;;;;;4.07;3.50;;;16.00;99.90;;;;;;5134139;27;20157;-58